Time,TemperatureF,DewpointF,PressureIn,WindDirection,WindDirectionDegrees,WindSpeedMPH,WindSpeedGustMPH,Humidity,HourlyPrecipIn,Conditions,Clouds,dailyrainin,SolarRadiationWatts/m^2,SoftwareType,DateUTC
2013-01-30 00:02:00,58.5,54.9,29.61,South,178,4.1,6.9,88,0.01,-RA,BKN,0.00,0.0,WeatherDisplay:10.37,2013-01-30 05:02:00,
2013-01-30 00:03:00,58.3,54.7,29.61,South,179,4.3,6.2,88,0.01,-RA,BKN,0.00,0.0,WeatherDisplay:10.37,2013-01-30 05:03:00,
2013-01-30 00:08:00,58.1,54.9,29.61,SSE,147,3.0,4.6,89,0.01,-RA,BKN,0.00,0.0,WeatherDisplay:10.37,2013-01-30 05:08:00,
2013-01-30 00:13:00,57.9,55.0,29.61,SE,146,4.4,6.9,90,0.02,-RA,BKN,0.01,0.0,WeatherDisplay:10.37,2013-01-30 05:13:00,
2013-01-30 00:18:00,57.7,54.8,29.61,SSE,148,5.4,9.2,90,0.01,-RA,BKN,0.01,0.0,WeatherDisplay:10.37,2013-01-30 05:18:00,
2013-01-30 00:23:00,57.7,54.8,29.61,SSE,161,3.1,6.9,90,0.01,-RA,BKN,0.01,0.0,WeatherDisplay:10.37,2013-01-30 05:23:00,
2013-01-30 00:28:00,57.6,54.3,29.61,SSE,167,2.2,4.6,89,0.01,-RA,BKN,0.01,0.0,WeatherDisplay:10.37,2013-01-30 05:28:00,
2013-01-30 00:33:00,57.7,54.5,29.59,SE,136,2.2,4.6,89,0.01,-RA,BKN,0.01,0.0,WeatherDisplay:10.37,2013-01-30 05:33:00,
2013-01-30 00:38:00,57.6,54.3,29.59,SE,145,3.1,5.8,89,0.01,-RA,BKN,0.01,0.0,WeatherDisplay:10.37,2013-01-30 05:38:00,
2013-01-30 00:43:00,57.6,54.3,29.59,SSE,149,4.3,6.9,89,0.01,-RA,BKN,0.01,0.0,WeatherDisplay:10.37,2013-01-30 05:43:00,
2013-01-30 00:48:00,57.4,54.2,29.59,SSE,154,4.5,5.8,89,0.01,-RA,BKN,0.01,0.0,WeatherDisplay:10.37,2013-01-30 05:48:00,
2013-01-30 00:53:00,57.4,54.5,29.58,SE,144,6.4,9.2,90,0.01,-RA,BKN,0.01,0.0,WeatherDisplay:10.37,2013-01-30 05:53:00,
2013-01-30 00:58:00,57.4,54.2,29.57,SE,146,8.4,10.4,89,0.01,-RA,BKN,0.01,0.0,WeatherDisplay:10.37,2013-01-30 05:58:00,
2013-01-30 01:03:00,57.6,54.0,29.57,ESE,122,7.8,11.5,88,0.01,-RA,BKN,0.01,0.0,WeatherDisplay:10.37,2013-01-30 06:03:00,
2013-01-30 01:08:00,57.9,54.1,29.57,SE,145,5.2,8.1,87,0.01,-RA,BKN,0.01,0.0,WeatherDisplay:10.37,2013-01-30 06:08:00,
2013-01-30 01:13:00,57.7,53.6,29.55,ESE,112,4.5,9.2,86,0.01,-RA,BKN,0.01,0.0,WeatherDisplay:10.37,2013-01-30 06:13:00,
2013-01-30 01:18:00,57.6,53.4,29.55,ESE,120,6.0,9.2,86,0.00,-RA,BKN,0.01,0.0,WeatherDisplay:10.37,2013-01-30 06:18:00,
2013-01-30 01:23:00,57.0,53.2,29.54,ESE,109,6.1,8.1,87,0.00,-RA,BKN,0.01,0.0,WeatherDisplay:10.37,2013-01-30 06:23:00,
2013-01-30 01:28:00,57.4,53.2,29.54,ESE,117,0.3,1.0,86,0.00,-RA,BKN,0.01,0.0,WeatherDisplay:10.37,2013-01-30 06:28:00,
2013-01-30 01:33:00,57.2,52.7,29.53,ESE,117,0.3,2.3,85,0.00,-RA,BKN,0.01,0.0,WeatherDisplay:10.37,2013-01-30 06:33:00,
2013-01-30 01:38:00,56.8,52.4,29.52,NNE,23,1.2,3.5,85,0.00,-RA,BKN,0.01,0.0,WeatherDisplay:10.37,2013-01-30 06:38:00,
2013-01-30 01:43:00,56.3,52.2,29.52,East,83,0.0,0.0,86,0.00,-RA,BKN,0.01,0.0,WeatherDisplay:10.37,2013-01-30 06:43:00,
2013-01-30 01:48:00,55.9,52.1,29.51,NNE,17,0.2,1.1,87,0.00,-RA,BKN,0.01,0.0,WeatherDisplay:10.37,2013-01-30 06:48:00,
2013-01-30 01:53:00,55.4,51.9,29.50,NNE,20,0.1,1.1,88,0.00,-RA,BKN,0.01,0.0,WeatherDisplay:10.37,2013-01-30 06:53:00,
2013-01-30 01:58:00,55.0,51.5,29.50,NNE,28,0.9,2.3,88,0.00,-RA,BKN,0.01,0.0,WeatherDisplay:10.37,2013-01-30 06:58:00,
2013-01-30 02:03:00,54.7,51.5,29.50,East,81,0.0,3.5,89,0.00,-RA,BKN,0.01,0.0,WeatherDisplay:10.37,2013-01-30 07:03:00,
2013-01-30 02:08:00,54.7,51.8,29.50,SE,146,4.4,7.9,90,0.00,-RA,BKN,0.01,0.0,WeatherDisplay:10.37,2013-01-30 07:08:00,
2013-01-30 02:13:00,55.0,52.2,29.50,SE,140,4.2,6.9,90,0.00,-RA,BKN,0.01,0.0,WeatherDisplay:10.37,2013-01-30 07:13:00,
2013-01-30 02:18:00,55.4,52.2,29.49,SE,145,6.9,9.2,89,0.00,BKN,,0.01,0.0,WeatherDisplay:10.37,2013-01-30 07:18:00,
2013-01-30 02:23:00,55.8,51.9,29.48,SSE,154,4.2,6.9,87,0.00,BKN,,0.01,0.0,WeatherDisplay:10.37,2013-01-30 07:23:00,
2013-01-30 02:28:00,56.1,52.3,29.48,SSE,153,5.3,9.2,87,0.00,BKN,,0.01,0.0,WeatherDisplay:10.37,2013-01-30 07:28:00,
2013-01-30 02:33:00,56.3,52.2,29.48,SSE,148,4.4,7.4,86,0.00,BKN,,0.01,0.0,WeatherDisplay:10.37,2013-01-30 07:33:00,
2013-01-30 02:38:00,56.7,52.2,29.48,SE,146,3.7,6.6,85,0.00,BKN,,0.01,0.0,WeatherDisplay:10.37,2013-01-30 07:38:00,
2013-01-30 02:43:00,56.8,52.1,29.47,SE,142,2.9,5.6,84,0.00,BKN,,0.01,0.0,WeatherDisplay:10.37,2013-01-30 07:43:00,
2013-01-30 02:48:00,57.0,52.2,29.47,SSE,151,5.4,8.1,84,0.00,BKN,,0.01,0.0,WeatherDisplay:10.37,2013-01-30 07:48:00,
2013-01-30 02:53:00,57.4,52.6,29.46,SSE,151,4.1,8.1,84,0.00,BKN,,0.01,0.0,WeatherDisplay:10.37,2013-01-30 07:53:00,
2013-01-30 02:58:00,57.7,52.6,29.46,South,180,3.1,6.9,83,0.00,BKN,,0.01,0.0,WeatherDisplay:10.37,2013-01-30 07:58:00,
2013-01-30 03:03:00,57.9,52.8,29.46,SE,146,2.0,4.6,83,0.00,BKN,,0.01,0.0,WeatherDisplay:10.37,2013-01-30 08:03:00,
2013-01-30 03:08:00,58.3,52.8,29.46,South,187,5.1,6.9,82,0.00,BKN,,0.01,0.0,WeatherDisplay:10.37,2013-01-30 08:08:00,
2013-01-30 03:13:00,58.6,53.2,29.46,South,178,3.0,4.6,82,0.00,BKN,,0.01,0.0,WeatherDisplay:10.37,2013-01-30 08:13:00,
2013-01-30 03:18:00,59.2,53.4,29.46,South,180,3.2,5.4,81,0.00,BKN,,0.01,0.0,WeatherDisplay:10.37,2013-01-30 08:18:00,
2013-01-30 03:23:00,59.9,53.4,29.46,SSW,206,3.5,10.4,79,0.00,BKN,,0.01,0.0,WeatherDisplay:10.37,2013-01-30 08:23:00,
2013-01-30 03:28:00,60.4,53.2,29.46,South,177,4.1,5.8,77,0.00,BKN,,0.01,0.0,WeatherDisplay:10.37,2013-01-30 08:28:00,
2013-01-30 03:33:00,60.4,52.8,29.44,SSW,196,4.2,6.9,76,0.00,BKN,,0.01,0.0,WeatherDisplay:10.37,2013-01-30 08:33:00,
2013-01-30 03:38:00,60.6,53.0,29.44,South,189,4.2,8.1,76,0.00,BKN,,0.01,0.0,WeatherDisplay:10.37,2013-01-30 08:38:00,
2013-01-30 03:43:00,60.8,52.8,29.44,South,172,3.5,6.2,75,0.00,BKN,,0.01,0.0,WeatherDisplay:10.37,2013-01-30 08:43:00,
2013-01-30 03:48:00,61.0,52.6,29.44,South,190,4.3,9.2,74,0.00,BKN,,0.01,0.0,WeatherDisplay:10.37,2013-01-30 08:48:00,
2013-01-30 03:53:00,61.0,52.6,29.43,South,177,5.2,6.9,74,0.00,BKN,,0.01,0.0,WeatherDisplay:10.37,2013-01-30 08:53:00,
2013-01-30 03:58:00,61.0,52.6,29.43,SSE,148,5.7,6.9,74,0.00,BKN,,0.01,0.0,WeatherDisplay:10.37,2013-01-30 08:58:00,
2013-01-30 04:03:00,60.8,52.5,29.42,SSW,210,5.6,8.1,74,0.00,BKN,,0.01,0.0,WeatherDisplay:10.37,2013-01-30 09:03:00,
2013-01-30 04:08:00,61.0,52.6,29.42,SE,141,4.8,9.2,74,0.00,BKN,,0.01,0.0,WeatherDisplay:10.37,2013-01-30 09:08:00,
2013-01-30 04:13:00,60.8,52.5,29.42,South,177,5.5,8.4,74,0.00,BKN,,0.01,0.0,WeatherDisplay:10.37,2013-01-30 09:13:00,
2013-01-30 04:18:00,61.0,52.6,29.42,SE,143,6.5,10.4,74,0.00,BKN,,0.01,0.0,WeatherDisplay:10.37,2013-01-30 09:18:00,
2013-01-30 04:23:00,60.6,52.3,29.42,SSE,158,6.2,9.2,74,0.00,BKN,,0.01,0.0,WeatherDisplay:10.37,2013-01-30 09:23:00,
2013-01-30 04:28:00,60.4,52.1,29.40,SSE,156,6.2,9.9,74,0.00,BKN,,0.01,0.0,WeatherDisplay:10.37,2013-01-30 09:28:00,
2013-01-30 04:33:00,60.3,51.9,29.40,SSE,167,5.9,8.1,74,0.00,BKN,,0.01,0.0,WeatherDisplay:10.37,2013-01-30 09:33:00,
2013-01-30 04:38:00,60.4,52.1,29.40,South,171,4.6,8.1,74,0.00,BKN,,0.01,0.0,WeatherDisplay:10.37,2013-01-30 09:38:00,
2013-01-30 04:43:00,60.1,51.8,29.40,South,171,5.9,10.4,74,0.00,BKN,,0.01,0.0,WeatherDisplay:10.37,2013-01-30 09:43:00,
2013-01-30 04:48:00,60.1,51.8,29.40,SSW,200,6.1,10.4,74,0.00,BKN,,0.01,0.0,WeatherDisplay:10.37,2013-01-30 09:48:00,
2013-01-30 04:53:00,60.4,51.7,29.40,South,182,4.7,8.1,73,0.00,BKN,,0.01,0.0,WeatherDisplay:10.37,2013-01-30 09:53:00,
2013-01-30 04:58:00,60.4,51.7,29.40,SE,135,4.7,9.2,73,0.00,BKN,,0.01,0.0,WeatherDisplay:10.37,2013-01-30 09:58:00,
2013-01-30 05:03:00,60.4,51.7,29.39,SSE,164,5.5,8.1,73,0.00,BKN,,0.01,0.0,WeatherDisplay:10.37,2013-01-30 10:03:00,
2013-01-30 05:08:00,60.3,51.6,29.39,SSE,161,4.7,8.1,73,0.00,BKN,,0.01,0.0,WeatherDisplay:10.37,2013-01-30 10:08:00,
2013-01-30 05:13:00,60.4,51.7,29.38,SSE,159,5.6,7.5,73,0.00,BKN,,0.01,0.0,WeatherDisplay:10.37,2013-01-30 10:13:00,
2013-01-30 05:18:00,60.4,51.4,29.38,South,188,5.5,8.1,72,0.00,BKN,,0.01,0.0,WeatherDisplay:10.37,2013-01-30 10:18:00,
2013-01-30 05:23:00,60.6,51.5,29.37,South,175,5.6,8.1,72,0.00,BKN,,0.01,0.0,WeatherDisplay:10.37,2013-01-30 10:23:00,
2013-01-30 05:28:00,60.4,51.4,29.37,South,179,5.6,8.2,72,0.00,BKN,,0.01,0.0,WeatherDisplay:10.37,2013-01-30 10:28:00,
2013-01-30 05:33:00,60.3,51.6,29.37,ESE,102,4.7,6.9,73,0.00,BKN,,0.01,0.0,WeatherDisplay:10.37,2013-01-30 10:33:00,
2013-01-30 05:38:00,59.7,51.4,29.36,SE,145,7.4,9.2,74,0.00,BKN,,0.01,0.0,WeatherDisplay:10.37,2013-01-30 10:38:00,
2013-01-30 05:43:00,59.5,51.2,29.35,SSE,154,8.5,12.7,74,0.00,BKN,,0.01,0.0,WeatherDisplay:10.37,2013-01-30 10:43:00,
2013-01-30 05:48:00,59.4,51.4,29.34,South,182,8.6,15.0,75,0.00,BKN,,0.01,0.0,WeatherDisplay:10.37,2013-01-30 10:48:00,
2013-01-30 05:53:00,59.2,51.3,29.35,SE,130,9.5,16.4,75,0.00,BKN,,0.01,0.0,WeatherDisplay:10.37,2013-01-30 10:53:00,
2013-01-30 05:58:00,59.2,51.3,29.35,ESE,119,8.2,15.0,75,0.00,BKN,,0.01,0.0,WeatherDisplay:10.37,2013-01-30 10:58:00,
2013-01-30 06:03:00,59.0,51.4,29.34,South,180,8.6,17.3,76,0.00,BKN,,0.01,0.0,WeatherDisplay:10.37,2013-01-30 11:03:00,
2013-01-30 06:08:00,59.0,51.4,29.34,SE,144,7.2,11.5,76,0.00,BKN,,0.01,0.0,WeatherDisplay:10.37,2013-01-30 11:08:00,
2013-01-30 06:13:00,58.8,51.3,29.34,SSE,147,9.8,15.0,76,0.00,BKN,,0.01,0.0,WeatherDisplay:10.37,2013-01-30 11:13:00,
2013-01-30 06:18:00,58.8,51.3,29.34,SSE,161,7.1,10.4,76,0.00,BKN,,0.01,0.0,WeatherDisplay:10.37,2013-01-30 11:18:00,
2013-01-30 06:23:00,58.8,51.6,29.34,SSE,154,7.9,16.1,77,0.00,BKN,,0.01,0.0,WeatherDisplay:10.37,2013-01-30 11:23:00,
2013-01-30 06:28:00,58.8,51.3,29.34,SE,145,6.9,16.1,76,0.00,BKN,,0.01,0.0,WeatherDisplay:10.37,2013-01-30 11:28:00,
2013-01-30 06:33:00,58.8,51.3,29.33,SE,140,8.7,10.4,76,0.00,BKN,,0.01,0.0,WeatherDisplay:10.37,2013-01-30 11:33:00,
2013-01-30 06:38:00,58.6,51.4,29.33,SSE,156,6.6,12.7,77,0.00,BKN,,0.01,0.0,WeatherDisplay:10.37,2013-01-30 11:38:00,
2013-01-30 06:43:00,58.5,51.3,29.33,East,96,8.3,11.5,77,0.00,BKN,,0.01,0.0,WeatherDisplay:10.37,2013-01-30 11:43:00,
2013-01-30 06:48:00,58.3,51.1,29.32,SSE,163,6.9,9.2,77,0.00,BKN,,0.01,0.0,WeatherDisplay:10.37,2013-01-30 11:48:00,
2013-01-30 06:53:00,58.3,51.4,29.32,SE,145,7.1,11.5,78,0.00,BKN,,0.01,0.0,WeatherDisplay:10.37,2013-01-30 11:53:00,
2013-01-30 06:58:00,58.1,51.3,29.32,SE,144,7.0,10.4,78,0.00,BKN,,0.01,0.0,WeatherDisplay:10.37,2013-01-30 11:58:00,
2013-01-30 07:03:00,58.1,51.3,29.31,ESE,104,8.7,11.5,78,0.00,BKN,,0.01,0.0,WeatherDisplay:10.37,2013-01-30 12:03:00,
2013-01-30 07:08:00,58.1,51.3,29.31,SSE,150,8.9,12.7,78,0.00,BKN,,0.01,0.0,WeatherDisplay:10.37,2013-01-30 12:08:00,
2013-01-30 07:13:00,58.3,51.1,29.31,SE,133,9.9,15.0,77,0.00,BKN,,0.01,0.0,WeatherDisplay:10.37,2013-01-30 12:13:00,
2013-01-30 07:18:00,58.3,51.1,29.31,SE,124,7.8,11.5,77,0.00,BKN,,0.01,0.0,WeatherDisplay:10.37,2013-01-30 12:18:00,
2013-01-30 07:23:00,58.5,51.3,29.30,South,172,8.2,12.7,77,0.00,BKN,,0.01,0.0,WeatherDisplay:10.37,2013-01-30 12:23:00,
2013-01-30 07:28:00,58.6,51.1,29.30,ESE,111,7.8,12.7,76,0.00,BKN,,0.01,0.0,WeatherDisplay:10.37,2013-01-30 12:28:00,
2013-01-30 07:33:00,58.8,51.3,29.30,SSE,166,7.4,11.5,76,0.00,BKN,,0.01,0.0,WeatherDisplay:10.37,2013-01-30 12:33:00,
2013-01-30 07:38:00,59.4,51.4,29.29,SSE,159,6.1,9.2,75,0.00,BKN,,0.01,0.0,WeatherDisplay:10.37,2013-01-30 12:38:00,
2013-01-30 07:43:00,59.5,51.2,29.30,SE,125,6.1,10.4,74,0.00,BKN,,0.01,0.0,WeatherDisplay:10.37,2013-01-30 12:43:00,
2013-01-30 07:48:00,59.9,51.6,29.29,SE,143,3.2,8.1,74,0.00,BKN,,0.01,0.0,WeatherDisplay:10.37,2013-01-30 12:48:00,
2013-01-30 07:53:00,60.1,51.8,29.29,SSE,160,3.8,9.2,74,0.00,BKN,,0.01,0.0,WeatherDisplay:10.37,2013-01-30 12:53:00,
2013-01-30 07:58:00,60.6,51.9,29.29,South,177,3.8,8.1,73,0.00,BKN,,0.01,0.0,WeatherDisplay:10.37,2013-01-30 12:58:00,
2013-01-30 08:03:00,61.2,52.1,29.28,SE,143,3.8,6.2,72,0.00,BKN,,0.01,0.0,WeatherDisplay:10.37,2013-01-30 13:03:00,
2013-01-30 08:08:00,61.9,52.0,29.28,SSE,167,4.4,10.4,70,0.00,BKN,,0.01,0.0,WeatherDisplay:10.37,2013-01-30 13:08:00,
2013-01-30 08:13:00,62.2,51.9,29.28,ESE,119,7.0,13.1,69,0.00,BKN,,0.01,0.0,WeatherDisplay:10.37,2013-01-30 13:13:00,
2013-01-30 08:18:00,62.8,52.1,29.28,SE,143,7.3,10.4,68,0.00,OVC,BKN,0.01,0.0,WeatherDisplay:10.37,2013-01-30 13:18:00,
2013-01-30 08:23:00,63.3,52.2,29.28,South,191,6.5,10.4,67,0.00,OVC,BKN,0.01,0.0,WeatherDisplay:10.37,2013-01-30 13:23:00,
2013-01-30 08:28:00,63.3,51.8,29.27,South,181,10.4,11.5,66,0.00,OVC,BKN,0.01,0.0,WeatherDisplay:10.37,2013-01-30 13:28:00,
2013-01-30 08:33:00,63.7,51.7,29.27,SW,216,11.6,13.8,65,0.00,OVC,BKN,0.01,42.5,WeatherDisplay:10.37,2013-01-30 13:33:00,
2013-01-30 08:38:00,64.0,52.0,29.28,SSE,167,10.2,15.0,65,0.00,OVC,BKN,0.01,45.5,WeatherDisplay:10.37,2013-01-30 13:38:00,
2013-01-30 08:43:00,64.4,52.4,29.27,SSE,156,7.4,12.7,65,0.00,OVC,BKN,0.01,50.9,WeatherDisplay:10.37,2013-01-30 13:43:00,
2013-01-30 08:48:00,64.4,52.0,29.26,South,185,9.8,15.0,64,0.00,OVC,BKN,0.01,50.9,WeatherDisplay:10.37,2013-01-30 13:48:00,
2013-01-30 08:53:00,64.6,52.1,29.26,South,180,10.2,12.7,64,0.00,OVC,BKN,0.01,39.5,WeatherDisplay:10.37,2013-01-30 13:53:00,
2013-01-30 08:58:00,64.6,52.1,29.26,SSW,208,9.3,18.4,64,0.00,OVC,BKN,0.01,30.5,WeatherDisplay:10.37,2013-01-30 13:58:00,
2013-01-30 09:03:00,64.4,52.0,29.26,SE,141,10.7,15.0,64,0.00,OVC,BKN,0.01,29.4,WeatherDisplay:10.37,2013-01-30 14:03:00,
2013-01-30 09:08:00,64.2,51.8,29.25,South,184,7.5,12.7,64,0.00,OVC,BKN,0.01,32.3,WeatherDisplay:10.37,2013-01-30 14:08:00,
2013-01-30 09:13:00,64.6,52.1,29.24,South,186,6.2,10.4,64,0.00,OVC,BKN,0.01,33.5,WeatherDisplay:10.37,2013-01-30 14:13:00,
2013-01-30 09:18:00,64.6,52.1,29.24,SSE,166,8.4,15.0,64,0.00,OVC,BKN,0.01,39.5,WeatherDisplay:10.37,2013-01-30 14:18:00,
2013-01-30 09:23:00,64.9,52.5,29.24,South,180,5.5,9.2,64,0.00,OVC,BKN,0.01,35.3,WeatherDisplay:10.37,2013-01-30 14:23:00,
2013-01-30 09:28:00,64.9,52.5,29.24,South,187,8.4,15.0,64,0.00,OVC,BKN,0.01,40.7,WeatherDisplay:10.37,2013-01-30 14:28:00,
2013-01-30 09:33:00,65.1,52.6,29.24,SSW,207,9.5,16.1,64,0.00,OVC,BKN,0.01,50.9,WeatherDisplay:10.37,2013-01-30 14:33:00,
2013-01-30 09:38:00,65.1,52.6,29.25,South,190,8.7,15.0,64,0.00,OVC,BKN,0.01,50.9,WeatherDisplay:10.37,2013-01-30 14:38:00,
2013-01-30 09:43:00,65.7,52.7,29.24,South,176,9.2,16.1,63,0.00,OVC,BKN,0.01,35.3,WeatherDisplay:10.37,2013-01-30 14:43:00,
2013-01-30 09:48:00,65.8,52.9,29.24,SSW,193,9.1,17.3,63,0.00,OVC,BKN,0.01,35.3,WeatherDisplay:10.37,2013-01-30 14:48:00,
2013-01-30 09:53:00,65.8,52.9,29.24,SW,219,8.4,15.0,63,0.00,OVC,BKN,0.01,37.7,WeatherDisplay:10.37,2013-01-30 14:53:00,
2013-01-30 09:58:00,65.8,52.9,29.24,SSE,152,9.3,12.7,63,0.00,OVC,BKN,0.01,40.7,WeatherDisplay:10.37,2013-01-30 14:58:00,
2013-01-30 10:03:00,65.5,52.5,29.23,South,184,8.2,18.4,63,0.00,OVC,BKN,0.01,26.4,WeatherDisplay:10.37,2013-01-30 15:03:00,
2013-01-30 10:08:00,64.9,53.3,29.24,South,180,6.5,11.5,66,0.00,OVC,BKN,0.01,27.6,WeatherDisplay:10.37,2013-01-30 15:08:00,
2013-01-30 10:13:00,64.2,52.6,29.23,South,185,9.5,11.5,66,0.00,OVC,BKN,0.01,26.4,WeatherDisplay:10.37,2013-01-30 15:13:00,
2013-01-30 10:18:00,64.4,53.2,29.23,SSW,209,10.7,15.0,67,0.00,-RA,BKN,0.01,17.4,WeatherDisplay:10.37,2013-01-30 15:18:00,
2013-01-30 10:23:00,63.7,54.1,29.22,South,191,8.4,13.8,71,0.01,-RA,BKN,0.02,20.4,WeatherDisplay:10.37,2013-01-30 15:23:00,
2013-01-30 10:28:00,63.3,54.1,29.22,SSW,196,6.7,9.2,72,0.01,-RA,BKN,0.02,27.6,WeatherDisplay:10.37,2013-01-30 15:28:00,
2013-01-30 10:33:00,63.0,54.2,29.22,South,184,7.0,13.8,73,0.01,-RA,BKN,0.02,27.6,WeatherDisplay:10.37,2013-01-30 15:33:00,
2013-01-30 10:38:00,62.8,54.4,29.22,South,182,8.7,14.6,74,0.01,-RA,BKN,0.02,20.4,WeatherDisplay:10.37,2013-01-30 15:38:00,
2013-01-30 10:43:00,61.9,54.6,29.22,SSE,160,9.6,17.3,77,0.02,-RA,BKN,0.04,20.4,WeatherDisplay:10.37,2013-01-30 15:43:00,
2013-01-30 10:48:00,61.3,55.5,29.21,South,185,5.7,13.8,81,0.05,-RA,BKN,0.06,55.7,WeatherDisplay:10.37,2013-01-30 15:48:00,
2013-01-30 10:53:00,61.3,55.8,29.21,SSW,196,5.5,10.4,82,0.05,-RA,BKN,0.06,98.2,WeatherDisplay:10.37,2013-01-30 15:53:00,
2013-01-30 10:58:00,61.3,55.5,29.21,SSW,192,8.6,11.5,81,0.05,-RA,BKN,0.06,70.1,WeatherDisplay:10.37,2013-01-30 15:58:00,
2013-01-30 11:03:00,61.7,55.8,29.21,SSE,149,8.0,11.5,81,0.05,OVC,BKN,0.06,82.1,WeatherDisplay:10.37,2013-01-30 16:03:00,
2013-01-30 11:08:00,61.9,55.6,29.21,SSE,166,9.4,16.1,80,0.05,OVC,BKN,0.06,79.1,WeatherDisplay:10.37,2013-01-30 16:08:00,
2013-01-30 11:13:00,61.9,55.3,29.21,SSE,158,10.0,15.0,79,0.05,OVC,BKN,0.06,46.7,WeatherDisplay:10.37,2013-01-30 16:13:00,
2013-01-30 11:18:00,61.9,55.3,29.21,South,172,9.2,13.8,79,0.05,-RA,BKN,0.06,42.5,WeatherDisplay:10.37,2013-01-30 16:18:00,
2013-01-30 11:23:00,62.1,55.5,29.23,SSW,196,9.0,16.1,79,0.04,-RA,BKN,0.06,23.4,WeatherDisplay:10.37,2013-01-30 16:23:00,
2013-01-30 11:28:00,61.2,56.0,29.27,West,271,8.2,17.3,83,0.04,-RA,BKN,0.06,9.0,WeatherDisplay:10.37,2013-01-30 16:28:00,
2013-01-30 11:33:00,59.5,56.0,29.26,SSW,210,11.1,16.1,88,0.05,-RA,BKN,0.07,32.3,WeatherDisplay:10.37,2013-01-30 16:33:00,
2013-01-30 11:38:00,59.2,56.2,29.25,SSW,194,8.5,12.7,90,0.05,-RA,BKN,0.07,61.7,WeatherDisplay:10.37,2013-01-30 16:38:00,
2013-01-30 11:43:00,59.2,56.2,29.25,SW,214,9.7,13.8,90,0.04,-RA,BKN,0.07,62.9,WeatherDisplay:10.37,2013-01-30 16:43:00,
2013-01-30 11:48:00,59.5,56.6,29.24,SSW,206,10.3,18.4,90,0.01,-RA,BKN,0.07,119.8,WeatherDisplay:10.37,2013-01-30 16:48:00,
2013-01-30 11:53:00,60.1,56.8,29.24,SSW,205,7.1,11.5,89,0.02,-RA,BKN,0.08,125.8,WeatherDisplay:10.37,2013-01-30 16:53:00,
2013-01-30 11:58:00,60.4,56.9,29.24,SSW,202,7.9,15.0,88,0.02,-RA,BKN,0.08,103.6,WeatherDisplay:10.37,2013-01-30 16:58:00,
2013-01-30 12:03:00,60.4,56.6,29.24,SW,221,10.2,15.0,87,0.02,-RA,BKN,0.08,61.7,WeatherDisplay:10.37,2013-01-30 17:03:00,
2013-01-30 12:08:00,61.0,56.8,29.24,SSW,193,8.0,11.5,86,0.02,-RA,BKN,0.08,186.9,WeatherDisplay:10.37,2013-01-30 17:08:00,
2013-01-30 12:13:00,61.5,56.6,29.24,South,174,7.7,10.4,84,0.02,-RA,BKN,0.08,128.8,WeatherDisplay:10.37,2013-01-30 17:13:00,
2013-01-30 12:18:00,61.9,56.7,29.24,South,191,9.0,12.7,83,0.02,-RA,BKN,0.08,239.6,WeatherDisplay:10.37,2013-01-30 17:18:00,
2013-01-30 12:23:00,62.4,56.9,29.22,SSW,198,7.7,12.7,82,0.02,-RA,BKN,0.08,311.5,WeatherDisplay:10.37,2013-01-30 17:23:00,
2013-01-30 12:28:00,63.1,56.9,29.21,SSW,195,5.5,9.2,80,0.02,-RA,BKN,0.08,185.7,WeatherDisplay:10.37,2013-01-30 17:28:00,
2013-01-30 12:33:00,63.0,56.3,29.18,South,178,7.1,12.7,79,0.01,-RA,BKN,0.08,143.2,WeatherDisplay:10.37,2013-01-30 17:33:00,
2013-01-30 12:38:00,63.1,56.5,29.18,South,176,7.3,10.1,79,0.01,-RA,BKN,0.08,162.3,WeatherDisplay:10.37,2013-01-30 17:38:00,
2013-01-30 12:43:00,63.1,55.8,29.18,SSE,156,6.0,8.4,77,0.01,-RA,BKN,0.08,130.0,WeatherDisplay:10.37,2013-01-30 17:43:00,
2013-01-30 12:48:00,63.3,56.0,29.18,South,182,8.4,16.1,77,0.01,-RA,BKN,0.08,236.6,WeatherDisplay:10.37,2013-01-30 17:48:00,
2013-01-30 12:53:00,63.3,54.9,29.19,SSW,194,8.5,13.8,74,0.00,-RA,BKN,0.08,166.5,WeatherDisplay:10.37,2013-01-30 17:53:00,
2013-01-30 12:58:00,63.7,55.2,29.18,SSW,202,6.4,11.5,74,0.00,-RA,BKN,0.08,371.4,WeatherDisplay:10.37,2013-01-30 17:58:00,
2013-01-30 13:03:00,64.6,55.7,29.17,SSE,166,6.3,10.4,73,0.00,-RA,BKN,0.08,364.2,WeatherDisplay:10.37,2013-01-30 18:03:00,
2013-01-30 13:08:00,64.9,55.3,29.17,South,179,6.1,8.4,71,0.00,-RA,BKN,0.08,163.5,WeatherDisplay:10.37,2013-01-30 18:08:00,
2013-01-30 13:13:00,64.9,55.3,29.17,South,176,7.3,11.5,71,0.00,-RA,BKN,0.08,179.7,WeatherDisplay:10.37,2013-01-30 18:13:00,
2013-01-30 13:18:00,64.9,54.9,29.16,SE,137,6.4,12.7,70,0.00,-RA,BKN,0.08,176.7,WeatherDisplay:10.37,2013-01-30 18:18:00,
2013-01-30 13:23:00,65.1,54.7,29.16,South,180,7.0,11.5,69,0.00,-RA,BKN,0.08,178.5,WeatherDisplay:10.37,2013-01-30 18:23:00,
2013-01-30 13:28:00,64.8,53.9,29.16,SSE,159,11.0,17.3,68,0.00,-RA,BKN,0.08,79.1,WeatherDisplay:10.37,2013-01-30 18:28:00,
2013-01-30 13:33:00,64.9,54.1,29.17,South,179,7.4,16.1,68,0.00,-RA,BKN,0.08,121.6,WeatherDisplay:10.37,2013-01-30 18:33:00,
2013-01-30 13:38:00,65.1,54.3,29.17,South,184,6.8,10.4,68,0.00,-RA,BKN,0.08,98.2,WeatherDisplay:10.37,2013-01-30 18:38:00,
2013-01-30 13:43:00,64.9,53.3,29.18,South,190,10.2,17.9,66,0.00,-RA,BKN,0.08,56.9,WeatherDisplay:10.37,2013-01-30 18:43:00,
2013-01-30 13:48:00,64.9,52.5,29.18,SW,221,11.7,20.7,64,0.00,-RA,BKN,0.08,76.1,WeatherDisplay:10.37,2013-01-30 18:48:00,
2013-01-30 13:53:00,65.1,52.2,29.17,SSW,205,11.0,14.6,63,0.00,-RA,BKN,0.08,67.1,WeatherDisplay:10.37,2013-01-30 18:53:00,
2013-01-30 13:58:00,65.5,52.1,29.17,South,190,10.4,15.0,62,0.00,-RA,BKN,0.08,67.1,WeatherDisplay:10.37,2013-01-30 18:58:00,
2013-01-30 14:03:00,65.5,52.1,29.17,SW,216,9.5,15.0,62,0.00,OVC,BKN,0.08,61.7,WeatherDisplay:10.37,2013-01-30 19:03:00,
2013-01-30 14:08:00,65.1,51.8,29.17,South,173,12.6,15.0,62,0.00,OVC,BKN,0.08,67.1,WeatherDisplay:10.37,2013-01-30 19:08:00,
2013-01-30 14:13:00,65.5,52.1,29.16,SW,224,9.0,16.1,62,0.00,OVC,BKN,0.08,103.6,WeatherDisplay:10.37,2013-01-30 19:13:00,
2013-01-30 14:18:00,65.3,51.9,29.16,South,189,11.9,17.3,62,0.00,OVC,BKN,0.08,128.8,WeatherDisplay:10.37,2013-01-30 19:18:00,
2013-01-30 14:23:00,65.5,52.1,29.15,SSW,193,12.8,17.7,62,0.00,OVC,BKN,0.08,98.2,WeatherDisplay:10.37,2013-01-30 19:23:00,
2013-01-30 14:28:00,65.1,51.8,29.16,South,184,13.3,18.4,62,0.00,OVC,BKN,0.08,76.1,WeatherDisplay:10.37,2013-01-30 19:28:00,
2013-01-30 14:33:00,65.1,51.8,29.16,SW,218,15.0,20.0,62,0.00,OVC,BKN,0.08,65.9,WeatherDisplay:10.37,2013-01-30 19:33:00,
2013-01-30 14:38:00,65.1,51.8,29.16,South,187,9.6,16.1,62,0.00,OVC,BKN,0.08,48.5,WeatherDisplay:10.37,2013-01-30 19:38:00,
2013-01-30 14:43:00,64.9,51.6,29.17,SSW,196,11.7,15.0,62,0.00,OVC,BKN,0.08,43.7,WeatherDisplay:10.37,2013-01-30 19:43:00,
2013-01-30 14:48:00,64.8,51.9,29.15,South,176,9.1,16.1,63,0.00,OVC,BKN,0.08,45.5,WeatherDisplay:10.37,2013-01-30 19:48:00,
2013-01-30 14:53:00,64.6,51.7,29.13,SSE,165,10.4,19.6,63,0.00,OVC,BKN,0.08,39.5,WeatherDisplay:10.37,2013-01-30 19:53:00,
2013-01-30 14:58:00,64.6,51.7,29.14,SE,141,6.6,13.8,63,0.00,OVC,BKN,0.08,33.5,WeatherDisplay:10.37,2013-01-30 19:58:00,
2013-01-30 15:03:00,64.2,51.8,29.14,South,184,8.4,12.7,64,0.00,OVC,BKN,0.08,33.5,WeatherDisplay:10.37,2013-01-30 20:03:00,
2013-01-30 15:08:00,64.2,51.8,29.14,SSW,208,9.6,13.8,64,0.00,OVC,BKN,0.08,33.5,WeatherDisplay:10.37,2013-01-30 20:08:00,
2013-01-30 15:13:00,64.2,51.4,29.12,SSW,211,9.7,15.0,63,0.00,OVC,BKN,0.08,33.5,WeatherDisplay:10.37,2013-01-30 20:13:00,
2013-01-30 15:18:00,64.2,51.8,29.12,SSW,192,8.2,15.0,64,0.00,OVC,BKN,0.08,32.3,WeatherDisplay:10.37,2013-01-30 20:18:00,
2013-01-30 15:23:00,63.9,51.4,29.12,SSW,202,11.3,12.7,64,0.00,OVC,BKN,0.08,29.4,WeatherDisplay:10.37,2013-01-30 20:23:00,
2013-01-30 15:28:00,63.7,51.7,29.13,SSW,200,8.0,15.0,65,0.00,OVC,BKN,0.08,23.4,WeatherDisplay:10.37,2013-01-30 20:28:00,
2013-01-30 15:33:00,63.3,51.8,29.14,South,183,10.5,18.2,66,0.00,OVC,BKN,0.08,23.4,WeatherDisplay:10.37,2013-01-30 20:33:00,
2013-01-30 15:38:00,63.3,51.8,29.13,South,186,9.0,15.0,66,0.00,OVC,BKN,0.08,27.6,WeatherDisplay:10.37,2013-01-30 20:38:00,
2013-01-30 15:43:00,63.3,52.2,29.14,SSW,193,8.7,19.6,67,0.00,OVC,BKN,0.08,32.3,WeatherDisplay:10.37,2013-01-30 20:43:00,
2013-01-30 15:48:00,63.1,52.0,29.14,SSW,200,9.0,17.3,67,0.00,OVC,BKN,0.08,32.3,WeatherDisplay:10.37,2013-01-30 20:48:00,
2013-01-30 15:54:00,63.1,52.0,29.14,South,187,8.2,16.1,67,0.00,OVC,BKN,0.08,29.4,WeatherDisplay:10.37,2013-01-30 20:54:00,
2013-01-30 15:58:00,63.0,52.2,29.14,SSW,197,10.3,13.8,68,0.00,OVC,BKN,0.08,26.4,WeatherDisplay:10.37,2013-01-30 20:58:00,
2013-01-30 16:03:00,63.0,52.6,29.14,South,173,7.5,15.0,69,0.00,OVC,BKN,0.08,22.2,WeatherDisplay:10.37,2013-01-30 21:03:00,
2013-01-30 16:09:00,62.8,52.5,29.14,South,180,6.6,13.8,69,0.00,OVC,BKN,0.08,23.4,WeatherDisplay:10.37,2013-01-30 21:09:00,
2013-01-30 16:13:00,62.8,52.5,29.14,South,174,5.9,10.4,69,0.00,OVC,BKN,0.08,20.4,WeatherDisplay:10.37,2013-01-30 21:13:00,
2013-01-30 16:18:00,62.4,52.1,29.15,SSW,193,7.2,11.5,69,0.00,OVC,BKN,0.08,22.2,WeatherDisplay:10.37,2013-01-30 21:18:00,
2013-01-30 16:23:00,62.8,52.5,29.14,SSW,201,4.6,15.0,69,0.00,OVC,BKN,0.08,20.4,WeatherDisplay:10.37,2013-01-30 21:23:00,
2013-01-30 16:28:00,62.6,52.3,29.14,SSW,213,9.1,13.8,69,0.00,OVC,BKN,0.08,17.4,WeatherDisplay:10.37,2013-01-30 21:28:00,
2013-01-30 16:33:00,62.8,52.5,29.15,SW,226,3.8,11.5,69,0.00,OVC,BKN,0.08,13.2,WeatherDisplay:10.37,2013-01-30 21:33:00,
2013-01-30 16:38:00,62.6,51.9,29.15,SW,233,2.9,5.8,68,0.00,OVC,BKN,0.08,10.2,WeatherDisplay:10.37,2013-01-30 21:38:00,
2013-01-30 16:43:00,63.0,51.8,29.17,SSW,205,1.2,3.5,67,0.00,OVC,BKN,0.08,9.0,WeatherDisplay:10.37,2013-01-30 21:43:00,
2013-01-30 16:48:00,63.0,51.4,29.17,SW,228,1.2,3.5,66,0.00,OVC,BKN,0.08,7.2,WeatherDisplay:10.37,2013-01-30 21:48:00,
2013-01-30 16:53:00,62.8,51.2,29.16,South,181,1.0,4.6,66,0.00,OVC,BKN,0.08,6.0,WeatherDisplay:10.37,2013-01-30 21:53:00,
2013-01-30 16:58:00,62.1,51.0,29.17,SSW,195,4.0,6.9,67,0.00,OVC,BKN,0.08,3.0,WeatherDisplay:10.37,2013-01-30 21:58:00,
2013-01-30 17:03:00,62.2,51.5,29.17,SSW,205,5.4,10.4,68,0.00,OVC,BKN,0.08,3.0,WeatherDisplay:10.37,2013-01-30 22:03:00,
2013-01-30 17:08:00,61.9,51.2,29.17,SW,223,4.9,8.1,68,0.00,OVC,BKN,0.08,1.2,WeatherDisplay:10.37,2013-01-30 22:08:00,
2013-01-30 17:13:00,61.9,51.2,29.17,SSW,208,5.1,11.5,68,0.00,OVC,BKN,0.08,1.2,WeatherDisplay:10.37,2013-01-30 22:13:00,
2013-01-30 17:18:00,62.2,51.1,29.16,South,184,5.5,8.9,67,0.00,OVC,BKN,0.08,1.2,WeatherDisplay:10.37,2013-01-30 22:18:00,
2013-01-30 17:23:00,62.2,51.1,29.15,South,172,2.5,8.1,67,0.00,OVC,BKN,0.08,1.2,WeatherDisplay:10.37,2013-01-30 22:23:00,
2013-01-30 17:28:00,62.2,51.1,29.15,South,182,2.1,5.8,67,0.00,OVC,BKN,0.08,1.2,WeatherDisplay:10.37,2013-01-30 22:28:00,
2013-01-30 17:33:00,62.1,51.0,29.15,SSW,207,3.6,6.9,67,0.00,OVC,BKN,0.08,1.2,WeatherDisplay:10.37,2013-01-30 22:33:00,
2013-01-30 17:38:00,62.1,51.0,29.16,SSW,207,1.6,3.5,67,0.00,OVC,BKN,0.08,1.2,WeatherDisplay:10.37,2013-01-30 22:38:00,
2013-01-30 17:43:00,61.5,50.9,29.17,South,185,2.0,3.5,68,0.00,OVC,BKN,0.08,1.2,WeatherDisplay:10.37,2013-01-30 22:43:00,
2013-01-30 17:48:00,61.3,50.7,29.17,SSW,202,2.6,4.0,68,0.00,OVC,BKN,0.08,1.2,WeatherDisplay:10.37,2013-01-30 22:48:00,
2013-01-30 17:53:00,61.3,51.1,29.17,SSW,204,2.4,5.8,69,0.00,OVC,BKN,0.08,0.0,WeatherDisplay:10.37,2013-01-30 22:53:00,
2013-01-30 17:58:00,61.3,50.7,29.15,SSW,202,0.8,4.6,68,0.00,OVC,BKN,0.08,0.0,WeatherDisplay:10.37,2013-01-30 22:58:00,
2013-01-30 18:03:00,61.2,50.5,29.16,SSW,211,0.9,4.6,68,0.00,OVC,BKN,0.08,0.0,WeatherDisplay:10.37,2013-01-30 23:03:00,
2013-01-30 18:08:00,61.0,50.7,29.16,South,180,2.9,5.8,69,0.00,OVC,BKN,0.08,0.0,WeatherDisplay:10.37,2013-01-30 23:08:00,
2013-01-30 18:13:00,61.0,50.7,29.16,South,178,1.4,1.8,69,0.00,OVC,BKN,0.08,0.0,WeatherDisplay:10.37,2013-01-30 23:13:00,
2013-01-30 18:18:00,60.6,50.8,29.15,SE,141,1.4,3.8,70,0.00,OVC,BKN,0.08,0.0,WeatherDisplay:10.37,2013-01-30 23:18:00,
2013-01-30 18:23:00,60.4,50.6,29.13,ESE,115,1.7,4.6,70,0.00,OVC,BKN,0.08,0.0,WeatherDisplay:10.37,2013-01-30 23:23:00,
2013-01-30 18:28:00,60.4,50.6,29.12,SSE,159,3.1,5.8,70,0.00,OVC,BKN,0.08,0.0,WeatherDisplay:10.37,2013-01-30 23:28:00,
2013-01-30 18:33:00,60.4,50.6,29.11,SE,140,4.9,8.1,70,0.00,OVC,BKN,0.08,0.0,WeatherDisplay:10.37,2013-01-30 23:33:00,
2013-01-30 18:38:00,60.4,50.6,29.11,SE,142,4.5,10.4,70,0.00,OVC,BKN,0.08,0.0,WeatherDisplay:10.37,2013-01-30 23:38:00,
2013-01-30 18:43:00,60.4,50.6,29.10,SSE,158,3.7,8.1,70,0.00,OVC,BKN,0.08,0.0,WeatherDisplay:10.37,2013-01-30 23:43:00,
2013-01-30 18:48:00,60.6,50.8,29.10,South,191,5.1,11.5,70,0.00,OVC,BKN,0.08,0.0,WeatherDisplay:10.37,2013-01-30 23:48:00,
2013-01-30 18:53:00,60.4,50.6,29.10,SSE,166,7.2,13.8,70,0.00,OVC,BKN,0.08,0.0,WeatherDisplay:10.37,2013-01-30 23:53:00,
2013-01-30 18:58:00,60.4,50.6,29.10,SSE,150,4.4,6.9,70,0.00,OVC,BKN,0.08,0.0,WeatherDisplay:10.37,2013-01-30 23:58:00,
2013-01-30 19:03:00,60.4,51.0,29.10,South,184,3.4,8.1,71,0.00,OVC,BKN,0.08,0.0,WeatherDisplay:10.37,2013-01-31 00:03:00,
2013-01-30 19:08:00,60.4,51.0,29.08,South,184,5.1,5.8,71,0.00,OVC,BKN,0.08,0.0,WeatherDisplay:10.37,2013-01-31 00:08:00,
2013-01-30 19:13:00,60.1,50.6,29.08,South,184,7.4,8.1,71,0.00,OVC,BKN,0.08,0.0,WeatherDisplay:10.37,2013-01-31 00:13:00,
2013-01-30 19:18:00,59.9,50.8,29.07,SSE,167,7.6,13.8,72,0.00,OVC,BKN,0.08,0.0,WeatherDisplay:10.37,2013-01-31 00:18:00,
2013-01-30 19:23:00,60.1,51.0,29.08,South,179,5.9,12.7,72,0.00,OVC,BKN,0.08,0.0,WeatherDisplay:10.37,2013-01-31 00:23:00,
2013-01-30 19:28:00,59.7,50.7,29.09,South,174,7.5,9.2,72,0.00,OVC,BKN,0.08,0.0,WeatherDisplay:10.37,2013-01-31 00:28:00,
2013-01-30 19:33:00,59.5,50.9,29.10,South,169,7.3,13.8,73,0.00,OVC,BKN,0.08,0.0,WeatherDisplay:10.37,2013-01-31 00:33:00,
2013-01-30 19:38:00,59.7,51.0,29.10,SSW,202,4.9,9.2,73,0.00,OVC,BKN,0.08,0.0,WeatherDisplay:10.37,2013-01-31 00:38:00,
2013-01-30 19:44:00,59.7,50.7,29.08,SSW,193,5.5,10.4,72,0.00,OVC,BKN,0.08,0.0,WeatherDisplay:10.37,2013-01-31 00:44:00,
2013-01-30 19:49:00,59.9,50.8,29.07,SSW,211,6.0,12.7,72,0.00,OVC,BKN,0.08,0.0,WeatherDisplay:10.37,2013-01-31 00:49:00,
2013-01-30 19:54:00,59.7,50.7,29.07,SSW,196,5.1,9.2,72,0.00,OVC,BKN,0.08,0.0,WeatherDisplay:10.37,2013-01-31 00:54:00,
2013-01-30 19:59:00,59.9,50.8,29.08,South,187,5.5,10.4,72,0.00,OVC,BKN,0.08,0.0,WeatherDisplay:10.37,2013-01-31 00:59:00,
2013-01-30 20:04:00,59.7,51.0,29.08,SSW,206,7.3,10.7,73,0.00,OVC,BKN,0.08,0.0,WeatherDisplay:10.37,2013-01-31 01:04:00,
2013-01-30 20:09:00,59.5,50.5,29.07,SSW,197,7.5,8.4,72,0.00,OVC,BKN,0.08,0.0,WeatherDisplay:10.37,2013-01-31 01:09:00,
2013-01-30 20:14:00,59.5,50.5,29.07,SSW,193,6.9,13.8,72,0.00,OVC,BKN,0.08,0.0,WeatherDisplay:10.37,2013-01-31 01:14:00,
2013-01-30 20:19:00,59.5,50.9,29.08,SSW,193,5.5,11.5,73,0.00,OVC,BKN,0.08,0.0,WeatherDisplay:10.37,2013-01-31 01:19:00,
2013-01-30 20:24:00,59.5,50.5,29.07,South,185,6.4,11.5,72,0.00,OVC,BKN,0.08,0.0,WeatherDisplay:10.37,2013-01-31 01:24:00,
2013-01-30 20:29:00,59.7,50.7,29.07,SSW,204,4.2,9.2,72,0.00,OVC,BKN,0.08,0.0,WeatherDisplay:10.37,2013-01-31 01:29:00,
2013-01-30 20:34:00,59.5,50.5,29.07,South,178,6.3,8.1,72,0.00,OVC,BKN,0.08,0.0,WeatherDisplay:10.37,2013-01-31 01:34:00,
2013-01-30 20:39:00,59.4,50.3,29.08,SSW,195,8.1,10.4,72,0.00,OVC,BKN,0.08,0.0,WeatherDisplay:10.37,2013-01-31 01:39:00,
2013-01-30 20:44:00,59.7,50.7,29.08,SW,219,5.0,8.1,72,0.00,OVC,BKN,0.08,0.0,WeatherDisplay:10.37,2013-01-31 01:44:00,
2013-01-30 20:49:00,59.4,50.3,29.07,SW,217,7.4,11.5,72,0.00,OVC,BKN,0.08,0.0,WeatherDisplay:10.37,2013-01-31 01:49:00,
2013-01-30 20:54:00,59.2,50.2,29.07,South,180,7.0,11.5,72,0.00,OVC,BKN,0.08,0.0,WeatherDisplay:10.37,2013-01-31 01:54:00,
2013-01-30 20:59:00,59.0,50.0,29.07,SSE,154,9.8,10.4,72,0.00,OVC,BKN,0.08,0.0,WeatherDisplay:10.37,2013-01-31 01:59:00,
2013-01-30 21:04:00,59.4,50.3,29.07,South,174,7.3,12.7,72,0.00,OVC,BKN,0.08,0.0,WeatherDisplay:10.37,2013-01-31 02:04:00,
2013-01-30 21:09:00,59.5,50.5,29.06,South,169,6.2,9.8,72,0.00,OVC,BKN,0.08,0.0,WeatherDisplay:10.37,2013-01-31 02:09:00,
2013-01-30 21:14:00,59.5,50.5,29.05,South,179,5.4,8.1,72,0.00,OVC,BKN,0.08,0.0,WeatherDisplay:10.37,2013-01-31 02:14:00,
2013-01-30 21:19:00,59.2,50.2,29.06,SW,221,7.5,11.5,72,0.00,OVC,BKN,0.08,0.0,WeatherDisplay:10.37,2013-01-31 02:19:00,
2013-01-30 21:24:00,59.4,50.7,29.06,SSW,197,6.2,11.5,73,0.00,OVC,BKN,0.08,0.0,WeatherDisplay:10.37,2013-01-31 02:24:00,
2013-01-30 21:29:00,59.4,50.7,29.06,South,171,5.8,6.9,73,0.00,OVC,BKN,0.08,0.0,WeatherDisplay:10.37,2013-01-31 02:29:00,
2013-01-30 21:34:00,59.2,50.9,29.05,South,184,4.4,9.2,74,0.00,OVC,BKN,0.08,0.0,WeatherDisplay:10.37,2013-01-31 02:34:00,
2013-01-30 21:39:00,59.0,51.1,29.04,SSW,210,5.7,6.9,75,0.00,OVC,BKN,0.08,0.0,WeatherDisplay:10.37,2013-01-31 02:39:00,
2013-01-30 21:44:00,58.6,51.4,29.04,South,184,4.2,8.1,77,0.00,OVC,BKN,0.08,0.0,WeatherDisplay:10.37,2013-01-31 02:44:00,
2013-01-30 21:49:00,58.5,51.6,29.04,South,184,4.1,5.8,78,0.00,OVC,BKN,0.08,0.0,WeatherDisplay:10.37,2013-01-31 02:49:00,
2013-01-30 21:54:00,58.1,51.6,29.04,SSE,166,2.2,5.8,79,0.00,OVC,BKN,0.08,0.0,WeatherDisplay:10.37,2013-01-31 02:54:00,
2013-01-30 21:59:00,57.9,51.8,29.03,SE,143,3.5,6.1,80,0.00,OVC,BKN,0.08,0.0,WeatherDisplay:10.37,2013-01-31 02:59:00,
2013-01-30 22:04:00,57.7,52.3,29.02,SE,124,2.9,5.5,82,0.00,OVC,BKN,0.08,0.0,WeatherDisplay:10.37,2013-01-31 03:04:00,
2013-01-30 22:09:00,57.6,52.4,29.02,SE,141,3.2,6.9,83,0.00,OVC,BKN,0.08,0.0,WeatherDisplay:10.37,2013-01-31 03:09:00,
2013-01-30 22:14:00,57.4,52.6,29.01,SSE,164,3.5,8.1,84,0.00,OVC,BKN,0.08,0.0,WeatherDisplay:10.37,2013-01-31 03:14:00,
2013-01-30 22:19:00,57.4,52.6,29.00,SE,137,3.9,5.8,84,0.01,-RA,BKN,0.09,0.0,WeatherDisplay:10.37,2013-01-31 03:19:00,
2013-01-30 22:24:00,57.0,52.6,29.00,SE,138,3.4,4.9,85,0.01,-RA,BKN,0.09,0.0,WeatherDisplay:10.37,2013-01-31 03:24:00,
2013-01-30 22:29:00,57.0,52.6,29.00,SSW,202,4.2,8.1,85,0.01,-RA,BKN,0.09,0.0,WeatherDisplay:10.37,2013-01-31 03:29:00,
2013-01-30 22:34:00,57.0,52.9,28.98,SE,136,5.0,6.9,86,0.01,-RA,BKN,0.09,0.0,WeatherDisplay:10.37,2013-01-31 03:34:00,
2013-01-30 22:39:00,56.8,53.0,28.98,SSE,161,4.9,8.1,87,0.02,-RA,BKN,0.10,0.0,WeatherDisplay:10.37,2013-01-31 03:39:00,
2013-01-30 22:44:00,56.5,52.7,28.98,South,172,5.9,8.1,87,0.02,-RA,BKN,0.10,0.0,WeatherDisplay:10.37,2013-01-31 03:44:00,
2013-01-30 22:49:00,56.7,52.8,28.98,SSW,193,4.2,7.1,87,0.02,-RA,BKN,0.10,0.0,WeatherDisplay:10.37,2013-01-31 03:49:00,
2013-01-30 22:54:00,56.5,53.0,28.98,SSE,150,5.7,11.5,88,0.02,-RA,BKN,0.10,0.0,WeatherDisplay:10.37,2013-01-31 03:54:00,
2013-01-30 22:59:00,56.5,53.0,28.98,SSE,167,7.9,9.2,88,0.02,-RA,BKN,0.10,0.0,WeatherDisplay:10.37,2013-01-31 03:59:00,
2013-01-30 23:04:00,56.5,53.0,28.97,South,171,6.4,10.4,88,0.02,OVC,BKN,0.10,0.0,WeatherDisplay:10.37,2013-01-31 04:04:00,
2013-01-30 23:09:00,56.5,52.7,28.96,ESE,112,7.1,12.7,87,0.02,OVC,BKN,0.10,0.0,WeatherDisplay:10.37,2013-01-31 04:09:00,
2013-01-30 23:14:00,56.5,52.7,28.96,SSE,151,5.9,10.4,87,0.02,OVC,BKN,0.10,0.0,WeatherDisplay:10.37,2013-01-31 04:14:00,
2013-01-30 23:19:00,56.3,52.8,28.95,East,99,10.0,12.7,88,0.01, +RA,BKN,0.10,0.0,WeatherDisplay:10.37,2013-01-31 04:19:00,
2013-01-30 23:24:00,56.3,52.8,28.95,ESE,117,6.9,12.7,88,0.01, +RA,BKN,0.10,0.0,WeatherDisplay:10.37,2013-01-31 04:24:00,
2013-01-30 23:29:00,56.1,52.9,28.95,ESE,106,6.7,11.5,89,0.02, +RA,BKN,0.11,0.0,WeatherDisplay:10.37,2013-01-31 04:29:00,
2013-01-30 23:34:00,55.9,53.0,28.95,South,172,5.5,9.2,90,0.02,-RA,BKN,0.11,0.0,WeatherDisplay:10.37,2013-01-31 04:34:00,
2013-01-30 23:39:00,55.9,53.0,28.95,South,190,6.1,11.5,90,0.01,-RA,BKN,0.11,0.0,WeatherDisplay:10.37,2013-01-31 04:39:00,
2013-01-30 23:44:00,55.9,53.0,28.93,SSE,166,6.2,8.1,90,0.02,-RA,BKN,0.12,0.0,WeatherDisplay:10.37,2013-01-31 04:44:00,
2013-01-30 23:49:00,55.6,53.0,28.93,South,185,6.5,9.2,91,0.02,-RA,BKN,0.12,0.0,WeatherDisplay:10.37,2013-01-31 04:49:00,
2013-01-30 23:54:00,55.8,53.2,28.93,SSE,155,5.1,8.1,91,0.02,-RA,BKN,0.13,0.0,WeatherDisplay:10.37,2013-01-31 04:54:00,
2013-01-30 23:59:00,55.6,53.3,28.92,South,180,6.3,10.4,92,0.03,-RA,BKN,0.13,0.0,WeatherDisplay:10.37,2013-01-31 04:59:00,